createdAt,value
2019-02-07T00:00:35.271Z,925.39
2019-02-07T00:02:07.182Z,925.50
2019-02-07T00:03:38.894Z,925.51
2019-02-07T00:05:10.708Z,925.61
2019-02-07T00:06:42.518Z,925.71
2019-02-07T00:08:14.331Z,925.73
2019-02-07T00:09:46.142Z,925.77
2019-02-07T00:11:17.953Z,925.67
2019-02-07T00:12:49.779Z,925.59
2019-02-07T00:14:21.608Z,925.48
2019-02-07T00:15:53.391Z,925.48
2019-02-07T00:17:25.202Z,925.62
2019-02-07T00:18:57.014Z,925.71
2019-02-07T00:20:28.929Z,925.71
2019-02-07T00:22:00.639Z,925.69
2019-02-07T00:23:32.453Z,925.62
2019-02-07T00:25:04.264Z,925.58
2019-02-07T00:26:36.077Z,925.63
2019-02-07T00:28:07.890Z,925.69
2019-02-07T00:29:39.701Z,925.76
2019-02-07T00:31:11.514Z,925.80
2019-02-07T00:32:43.356Z,925.81
2019-02-07T00:34:15.136Z,925.86
2019-02-07T00:35:46.949Z,925.77
2019-02-07T00:37:18.761Z,925.72
2019-02-07T00:38:50.710Z,925.73
2019-02-07T00:40:22.384Z,925.73
2019-02-07T00:41:54.197Z,925.67
2019-02-07T00:43:26.014Z,925.60
2019-02-07T00:44:57.821Z,925.60
2019-02-07T00:46:29.632Z,925.51
2019-02-07T00:48:01.531Z,925.50
2019-02-07T00:49:33.257Z,925.46
2019-02-07T00:51:05.068Z,925.45
2019-02-07T00:52:36.879Z,925.40
2019-02-07T00:54:08.692Z,925.37
2019-02-07T00:55:40.503Z,925.41
2019-02-07T00:57:12.665Z,925.30
2019-02-07T00:58:44.127Z,925.31
2019-02-07T01:00:15.940Z,925.26
2019-02-07T01:01:47.750Z,925.21
2019-02-07T01:03:19.667Z,925.20
2019-02-07T01:04:51.599Z,925.18
2019-02-07T01:06:23.185Z,925.15
2019-02-07T01:07:54.999Z,925.13
2019-02-07T01:09:26.811Z,925.08
2019-02-07T01:10:58.621Z,925.00
2019-02-07T01:12:30.433Z,925.02
2019-02-07T01:14:02.244Z,924.99
2019-02-07T01:15:34.158Z,924.93
2019-02-07T01:17:05.867Z,924.90
2019-02-07T01:18:37.679Z,924.79
2019-02-07T01:20:09.525Z,924.79
2019-02-07T01:21:41.304Z,924.78
2019-02-07T01:23:13.116Z,924.80
2019-02-07T01:24:44.927Z,924.82
2019-02-07T01:26:16.739Z,924.85
2019-02-07T01:27:48.856Z,924.75
2019-02-07T01:29:20.364Z,924.76
2019-02-07T01:30:52.174Z,924.76
2019-02-07T01:32:23.985Z,924.84
2019-02-07T01:33:55.897Z,924.84
2019-02-07T01:35:27.612Z,924.84
2019-02-07T01:36:59.421Z,924.86
2019-02-07T01:38:31.232Z,924.85
2019-02-07T01:40:03.045Z,924.88
2019-02-07T01:41:34.856Z,924.93
2019-02-07T01:43:06.671Z,924.94
2019-02-07T01:44:38.480Z,924.93
2019-02-07T01:46:10.292Z,924.94
2019-02-07T01:47:42.107Z,924.97
2019-02-07T01:49:13.915Z,924.92
2019-02-07T01:50:45.728Z,924.93
2019-02-07T01:52:17.639Z,924.93
2019-02-07T01:53:49.654Z,924.87
2019-02-07T01:55:21.170Z,924.86
2019-02-07T01:56:52.973Z,924.91
2019-02-07T01:58:24.785Z,925.02
2019-02-07T01:59:56.597Z,925.04
2019-02-07T02:01:28.408Z,924.98
2019-02-07T02:03:00.221Z,924.96
2019-02-07T02:04:32.032Z,924.88
2019-02-07T02:06:03.844Z,924.84
2019-02-07T02:07:35.656Z,924.78
2019-02-07T02:09:07.466Z,924.75
2019-02-07T02:10:39.378Z,924.69
2019-02-07T02:12:11.090Z,924.66
2019-02-07T02:13:42.901Z,924.60
2019-02-07T02:15:23.964Z,924.59
2019-02-07T02:16:46.534Z,924.59
2019-02-07T02:18:18.337Z,924.61
2019-02-07T02:19:50.147Z,924.68
2019-02-07T02:21:21.960Z,924.71
2019-02-07T02:22:53.770Z,924.67
2019-02-07T02:24:25.582Z,924.66
2019-02-07T02:25:57.396Z,924.65
2019-02-07T02:27:29.205Z,924.59
2019-02-07T02:29:01.118Z,924.57
2019-02-07T02:30:32.828Z,924.52
2019-02-07T02:32:04.640Z,924.53
2019-02-07T02:33:36.451Z,924.56
2019-02-07T02:35:08.265Z,924.59
2019-02-07T02:36:40.076Z,924.59
2019-02-07T02:38:11.886Z,924.63
2019-02-07T02:39:43.698Z,924.60
2019-02-07T02:41:15.512Z,924.60
2019-02-07T02:42:47.323Z,924.54
2019-02-07T02:44:19.134Z,924.48
2019-02-07T02:45:50.945Z,924.46
2019-02-07T02:47:22.857Z,924.47
2019-02-07T02:48:54.592Z,924.34
2019-02-07T02:50:26.391Z,924.37
2019-02-07T02:51:58.193Z,924.33
2019-02-07T02:53:30.002Z,924.33
2019-02-07T02:55:01.824Z,924.30
2019-02-07T02:56:33.631Z,924.24
2019-02-07T02:58:05.440Z,924.18
2019-02-07T02:59:37.248Z,924.19
2019-02-07T03:01:09.060Z,924.24
2019-02-07T03:02:40.872Z,924.27
2019-02-07T03:04:12.771Z,924.27
2019-02-07T03:05:44.595Z,924.24
2019-02-07T03:07:16.305Z,924.20
2019-02-07T03:08:48.118Z,924.15
2019-02-07T03:10:19.928Z,924.10
2019-02-07T03:11:51.740Z,924.04
2019-02-07T03:13:23.552Z,924.01
2019-02-07T03:14:55.363Z,923.97
2019-02-07T03:16:27.173Z,923.98
2019-02-07T03:17:58.984Z,923.98
2019-02-07T03:19:30.794Z,923.99
2019-02-07T03:21:02.607Z,924.05
2019-02-07T03:22:34.416Z,924.04
2019-02-07T03:24:06.330Z,923.98
2019-02-07T03:25:38.039Z,923.91
2019-02-07T03:27:09.849Z,923.94
2019-02-07T03:28:41.661Z,923.97
2019-02-07T03:30:13.478Z,923.96
2019-02-07T03:31:45.285Z,923.94
2019-02-07T03:33:17.095Z,923.90
2019-02-07T03:34:48.912Z,923.87
2019-02-07T03:36:20.816Z,923.89
2019-02-07T03:37:52.527Z,923.91
2019-02-07T03:39:24.338Z,923.86
2019-02-07T03:40:56.149Z,923.84
2019-02-07T03:42:28.062Z,923.81
2019-02-07T03:43:59.774Z,923.79
2019-02-07T03:45:31.584Z,923.85
2019-02-07T03:47:03.394Z,923.84
2019-02-07T03:48:35.207Z,923.85
2019-02-07T03:50:07.023Z,923.76
2019-02-07T03:51:38.832Z,923.69
2019-02-07T03:53:10.638Z,923.68
2019-02-07T03:54:42.550Z,923.70
2019-02-07T03:56:14.261Z,923.70
2019-02-07T03:57:46.074Z,923.67
2019-02-07T03:59:17.890Z,923.66
2019-02-07T04:00:49.799Z,923.65
2019-02-07T04:02:21.511Z,923.61
2019-02-07T04:03:53.316Z,923.63
2019-02-07T04:05:25.127Z,923.60
2019-02-07T04:06:56.938Z,923.64
2019-02-07T04:08:28.749Z,923.61
2019-02-07T04:10:00.561Z,923.59
2019-02-07T04:11:32.375Z,923.57
2019-02-07T04:13:04.189Z,923.56
2019-02-07T04:14:35.994Z,923.53
2019-02-07T04:16:15.274Z,923.50
2019-02-07T04:17:39.617Z,923.44
2019-02-07T04:19:11.529Z,923.41
2019-02-07T04:20:43.240Z,923.39
2019-02-07T04:22:15.050Z,923.36
2019-02-07T04:23:46.861Z,923.32
2019-02-07T04:25:18.671Z,923.33
2019-02-07T04:26:50.484Z,923.38
2019-02-07T04:28:22.295Z,923.35
2019-02-07T04:29:54.109Z,923.33
2019-02-07T04:31:25.917Z,923.33
2019-02-07T04:32:57.729Z,923.36
2019-02-07T04:34:29.540Z,923.32
2019-02-07T04:36:01.354Z,923.32
2019-02-07T04:37:33.262Z,923.33
2019-02-07T04:39:04.973Z,923.39
2019-02-07T04:40:36.784Z,923.33
2019-02-07T04:42:08.595Z,923.27
2019-02-07T04:43:40.407Z,923.26
2019-02-07T04:45:12.296Z,923.24
2019-02-07T04:46:44.030Z,923.29
2019-02-07T04:48:15.843Z,923.33
2019-02-07T04:49:47.653Z,923.31
2019-02-07T04:51:19.466Z,923.29
2019-02-07T04:52:51.277Z,923.23
2019-02-07T04:54:23.093Z,923.18
2019-02-07T04:55:55.000Z,923.19
2019-02-07T04:57:26.713Z,923.19
2019-02-07T04:58:58.523Z,923.24
2019-02-07T05:00:30.341Z,923.27
2019-02-07T05:02:02.397Z,923.23
2019-02-07T05:03:33.960Z,923.21
2019-02-07T05:05:05.772Z,923.19
2019-02-07T05:06:37.581Z,923.21
2019-02-07T05:08:09.393Z,923.18
2019-02-07T05:09:41.206Z,923.18
2019-02-07T05:11:13.017Z,923.13
2019-02-07T05:12:44.829Z,923.05
2019-02-07T05:14:16.841Z,923.04
2019-02-07T05:15:48.453Z,923.07
2019-02-07T05:17:20.267Z,923.00
2019-02-07T05:18:52.076Z,922.97
2019-02-07T05:20:23.889Z,922.98
2019-02-07T05:21:55.700Z,922.97
2019-02-07T05:23:27.512Z,922.89
2019-02-07T05:24:59.324Z,922.88
2019-02-07T05:26:31.137Z,922.85
2019-02-07T05:28:02.950Z,922.75
2019-02-07T05:29:34.762Z,922.78
2019-02-07T05:31:06.571Z,922.75
2019-02-07T05:32:38.734Z,922.77
2019-02-07T05:34:10.195Z,922.76
2019-02-07T05:35:42.013Z,922.74
2019-02-07T05:37:13.820Z,922.80
2019-02-07T05:38:45.636Z,922.78
2019-02-07T05:40:17.443Z,922.80
2019-02-07T05:41:49.259Z,922.78
2019-02-07T05:44:52.885Z,922.77
2019-02-07T05:46:24.694Z,922.80
2019-02-07T05:47:56.503Z,922.74
2019-02-07T05:49:28.315Z,922.80
2019-02-07T05:51:00.228Z,922.80
2019-02-07T05:52:31.937Z,922.83
2019-02-07T05:54:03.756Z,922.84
2019-02-07T05:55:35.561Z,922.83
2019-02-07T05:57:07.475Z,922.79
2019-02-07T05:58:39.185Z,922.78
2019-02-07T06:00:10.997Z,922.82
2019-02-07T06:01:42.810Z,922.83
2019-02-07T06:03:14.623Z,922.77
2019-02-07T06:04:46.433Z,922.74
2019-02-07T06:06:18.247Z,922.69
2019-02-07T06:07:50.059Z,922.66
2019-02-07T06:09:22.119Z,922.62
2019-02-07T06:10:53.682Z,922.68
2019-02-07T06:12:25.498Z,922.61
2019-02-07T06:13:57.304Z,922.66
2019-02-07T06:15:29.119Z,922.70
2019-02-07T06:17:02.707Z,922.76
2019-02-07T06:18:32.847Z,922.77
2019-02-07T06:20:04.552Z,922.76
2019-02-07T06:21:36.365Z,922.71
2019-02-07T06:23:08.176Z,922.69
2019-02-07T06:24:39.987Z,922.68
2019-02-07T06:26:11.799Z,922.64
2019-02-07T06:27:43.711Z,922.67
2019-02-07T06:29:15.427Z,922.64
2019-02-07T06:30:47.234Z,922.58
2019-02-07T06:32:19.047Z,922.57
2019-02-07T06:33:51.108Z,922.55
2019-02-07T06:35:22.670Z,922.56
2019-02-07T06:36:54.482Z,922.55
2019-02-07T06:38:26.294Z,922.54
2019-02-07T06:39:58.108Z,922.58
2019-02-07T06:41:29.917Z,922.61
2019-02-07T06:43:01.728Z,922.66
2019-02-07T06:44:33.539Z,922.63
2019-02-07T06:46:05.452Z,922.69
2019-02-07T06:47:37.162Z,922.71
2019-02-07T06:49:08.974Z,922.74
2019-02-07T06:50:40.785Z,922.77
2019-02-07T06:52:12.602Z,922.81
2019-02-07T06:53:44.409Z,922.73
2019-02-07T06:55:16.220Z,922.77
2019-02-07T06:56:48.032Z,922.77
2019-02-07T06:58:19.843Z,922.74
2019-02-07T06:59:51.655Z,922.76
2019-02-07T07:01:23.470Z,922.74
2019-02-07T07:02:55.278Z,922.72
2019-02-07T07:04:27.442Z,922.72
2019-02-07T07:05:58.909Z,922.72
2019-02-07T07:07:30.714Z,922.70
2019-02-07T07:09:02.530Z,922.70
2019-02-07T07:10:34.337Z,922.74
2019-02-07T07:12:06.152Z,922.74
2019-02-07T07:13:37.961Z,922.72
2019-02-07T07:15:09.772Z,922.71
2019-02-07T07:16:41.585Z,922.71
2019-02-07T07:18:13.399Z,922.75
2019-02-07T07:19:45.207Z,922.75
2019-02-07T07:21:17.019Z,922.80
2019-02-07T07:22:48.931Z,922.83
2019-02-07T07:24:20.642Z,922.83
2019-02-07T07:25:52.454Z,922.80
2019-02-07T07:27:24.265Z,922.81
2019-02-07T07:28:56.077Z,922.78
2019-02-07T07:30:27.888Z,922.78
2019-02-07T07:31:59.700Z,922.83
2019-02-07T07:33:31.512Z,922.84
2019-02-07T07:35:03.574Z,922.85
2019-02-07T07:36:35.135Z,922.87
2019-02-07T07:38:06.946Z,922.85
2019-02-07T07:39:38.759Z,922.82
2019-02-07T07:41:10.670Z,922.86
2019-02-07T07:42:42.381Z,922.87
2019-02-07T07:44:14.194Z,922.92
2019-02-07T07:45:46.004Z,922.88
2019-02-07T07:47:17.818Z,922.86
2019-02-07T07:48:49.933Z,922.84
2019-02-07T07:50:21.439Z,922.88
2019-02-07T07:51:53.257Z,922.90
2019-02-07T07:53:25.062Z,922.90
2019-02-07T07:54:56.874Z,922.92
2019-02-07T07:56:28.689Z,922.92
2019-02-07T07:58:00.497Z,922.94
2019-02-07T07:59:32.410Z,922.92
2019-02-07T08:01:04.123Z,922.87
2019-02-07T08:02:35.933Z,922.85
2019-02-07T08:04:07.798Z,922.92
2019-02-07T08:05:39.806Z,922.91
2019-02-07T08:07:11.366Z,922.92
2019-02-07T08:08:43.233Z,922.89
2019-02-07T08:10:15.020Z,922.89
2019-02-07T08:11:46.801Z,922.92
2019-02-07T08:13:18.613Z,922.88
2019-02-07T08:14:50.424Z,922.87
2019-02-07T08:16:22.235Z,922.87
2019-02-07T08:17:54.147Z,922.89
2019-02-07T08:19:25.859Z,922.83
2019-02-07T08:20:57.677Z,922.82
2019-02-07T08:22:29.482Z,922.84
2019-02-07T08:24:01.295Z,922.87
2019-02-07T08:25:33.109Z,922.86
2019-02-07T08:27:04.942Z,922.91
2019-02-07T08:28:36.727Z,922.97
2019-02-07T08:30:08.539Z,922.95
2019-02-07T08:31:40.349Z,922.89
2019-02-07T08:33:12.161Z,922.89
2019-02-07T08:34:43.974Z,922.89
2019-02-07T08:36:16.039Z,922.95
2019-02-07T08:37:47.651Z,922.99
2019-02-07T08:39:19.407Z,922.99
2019-02-07T08:40:51.275Z,923.03
2019-02-07T08:42:23.040Z,923.00
2019-02-07T08:43:54.849Z,923.01
2019-02-07T08:45:26.654Z,922.97
2019-02-07T08:46:58.514Z,923.04
2019-02-07T08:48:30.275Z,923.04
2019-02-07T08:50:02.141Z,923.06
2019-02-07T08:51:34.070Z,923.05
2019-02-07T08:53:05.709Z,923.03
2019-02-07T08:54:37.622Z,923.06
2019-02-07T08:56:09.337Z,923.06
2019-02-07T08:57:41.144Z,923.07
2019-02-07T08:59:12.954Z,923.06
2019-02-07T09:00:44.971Z,923.07
2019-02-07T09:02:16.579Z,923.18
2019-02-07T09:03:48.391Z,923.16
2019-02-07T09:05:20.200Z,923.18
2019-02-07T09:08:23.823Z,923.22
2019-02-07T09:09:55.941Z,923.23
2019-02-07T09:11:27.445Z,923.22
2019-02-07T09:12:59.462Z,923.24
2019-02-07T09:14:31.420Z,923.24
2019-02-07T09:16:02.882Z,923.24
2019-02-07T09:19:06.504Z,923.30
2019-02-07T09:20:38.857Z,923.32
2019-02-07T09:22:10.129Z,923.31
2019-02-07T09:23:41.939Z,923.29
2019-02-07T09:25:13.752Z,923.35
2019-02-07T09:26:45.563Z,923.37
2019-02-07T09:28:17.374Z,923.37
2019-02-07T09:29:49.186Z,923.43
2019-02-07T09:31:20.998Z,923.45
2019-02-07T09:34:24.721Z,923.47
2019-02-07T09:36:04.828Z,923.48
2019-02-07T09:37:28.287Z,923.52
2019-02-07T09:39:00.133Z,923.51
2019-02-07T09:40:32.534Z,923.64
2019-02-07T09:42:03.690Z,923.60
2019-02-07T09:43:35.576Z,923.65
2019-02-07T09:45:07.307Z,923.71
2019-02-07T09:46:39.198Z,923.68
2019-02-07T09:48:21.180Z,923.67
2019-02-07T09:52:46.670Z,923.81
2019-02-07T09:54:18.213Z,923.85
2019-02-07T09:55:49.992Z,923.82
2019-02-07T09:57:21.869Z,923.84
2019-02-07T09:58:53.630Z,923.87
2019-02-07T10:00:25.488Z,923.85
2019-02-07T10:03:29.057Z,923.93
2019-02-07T10:05:00.870Z,923.97
2019-02-07T10:06:32.705Z,923.94
2019-02-07T10:08:04.530Z,924.02
2019-02-07T10:09:36.814Z,923.98
2019-02-07T10:11:08.320Z,924.01
2019-02-07T10:12:39.936Z,924.04
2019-02-07T10:14:11.749Z,923.95
2019-02-07T10:15:43.561Z,924.03
2019-02-07T10:17:15.374Z,924.04
2019-02-07T10:18:47.187Z,924.06
2019-02-07T10:20:19.068Z,924.07
2019-02-07T10:23:22.640Z,924.16
2019-02-07T10:24:54.527Z,924.26
2019-02-07T10:26:26.457Z,924.27
2019-02-07T10:27:58.631Z,924.27
2019-02-07T10:29:30.029Z,924.30
2019-02-07T10:31:01.837Z,924.29
2019-02-07T10:32:33.509Z,924.28
2019-02-07T10:34:05.422Z,924.33
2019-02-07T10:35:37.139Z,924.50
2019-02-07T10:38:40.767Z,924.41
2019-02-07T10:40:12.606Z,924.41
2019-02-07T10:41:44.410Z,924.42
2019-02-07T10:43:16.726Z,924.37
2019-02-07T10:44:48.043Z,924.39
2019-02-07T10:46:21.564Z,924.44
2019-02-07T10:49:23.570Z,924.49
2019-02-07T10:50:55.302Z,924.51
2019-02-07T10:52:27.100Z,924.63
2019-02-07T10:53:58.917Z,924.72
2019-02-07T10:55:30.734Z,924.59
2019-02-07T10:57:02.547Z,924.53
2019-02-07T10:58:34.364Z,924.53
2019-02-07T11:01:37.997Z,924.56
2019-02-07T11:03:10.353Z,924.59
2019-02-07T11:04:41.629Z,924.73
2019-02-07T11:06:13.447Z,924.66
2019-02-07T11:07:45.363Z,924.66
2019-02-07T11:09:17.089Z,924.69
2019-02-07T11:10:48.899Z,924.75
2019-02-07T11:12:21.313Z,924.84
2019-02-07T11:13:52.537Z,924.93
2019-02-07T11:15:24.608Z,925.03
2019-02-07T11:16:57.012Z,924.91
2019-02-07T11:18:28.560Z,924.89
2019-02-07T11:19:59.805Z,924.92
2019-02-07T11:21:31.827Z,924.98
2019-02-07T11:23:03.551Z,924.92
2019-02-07T11:24:35.280Z,924.99
2019-02-07T11:26:07.683Z,925.00
2019-02-07T11:27:39.357Z,924.97
2019-02-07T11:29:10.756Z,924.87
2019-02-07T11:30:42.663Z,925.07
2019-02-07T11:32:14.555Z,924.97
2019-02-07T11:33:46.172Z,924.92
2019-02-07T11:35:18.198Z,924.77
2019-02-07T11:36:54.219Z,924.85
2019-02-07T11:38:21.636Z,924.99
2019-02-07T11:41:26.633Z,925.09
2019-02-07T11:42:57.096Z,924.90
2019-02-07T11:44:29.043Z,925.02
2019-02-07T11:46:00.995Z,925.13
2019-02-07T11:47:32.580Z,924.80
2019-02-07T11:49:06.925Z,924.72
2019-02-07T11:50:36.434Z,924.81
2019-02-07T11:53:40.058Z,924.83
2019-02-07T11:55:11.683Z,924.80
2019-02-07T11:56:43.525Z,924.96
2019-02-07T11:58:15.327Z,924.91
2019-02-07T11:59:47.355Z,924.93
2019-02-07T12:01:19.669Z,924.89
2019-02-07T12:02:51.361Z,925.10
2019-02-07T12:04:23.133Z,924.93
2019-02-07T12:05:54.558Z,924.86
2019-02-07T12:07:26.570Z,925.12
2019-02-07T12:08:58.267Z,925.31
2019-02-07T12:10:30.104Z,925.25
2019-02-07T12:12:01.886Z,925.20
2019-02-07T12:15:05.368Z,925.20
2019-02-07T12:16:37.187Z,925.21
2019-02-07T12:18:09.008Z,925.36
2019-02-07T12:19:40.831Z,925.29
2019-02-07T12:21:12.750Z,925.24
2019-02-07T12:22:44.674Z,925.18
2019-02-07T12:24:16.293Z,925.33
2019-02-07T12:25:48.418Z,925.19
2019-02-07T12:27:19.936Z,925.29
2019-02-07T12:28:52.298Z,925.34
2019-02-07T12:30:23.802Z,925.36
2019-02-07T12:31:55.402Z,925.23
2019-02-07T12:33:27.327Z,925.26
2019-02-07T12:34:59.049Z,925.35
2019-02-07T12:36:37.358Z,925.25
2019-02-07T12:38:02.687Z,925.39
2019-02-07T12:39:34.608Z,925.44
2019-02-07T12:41:06.331Z,925.41
2019-02-07T12:42:38.199Z,925.51
2019-02-07T12:44:10.508Z,925.10
2019-02-07T12:45:41.804Z,925.00
2019-02-07T12:47:13.852Z,925.09
2019-02-07T12:48:46.118Z,925.35
2019-02-07T12:50:17.272Z,925.41
2019-02-07T12:51:49.654Z,925.26
2019-02-07T12:53:20.922Z,925.09
2019-02-07T12:56:25.139Z,925.29
2019-02-07T12:57:56.687Z,925.45
2019-02-07T12:59:28.330Z,925.46
2019-02-07T13:01:00.948Z,925.48
2019-02-07T13:02:31.909Z,925.32
2019-02-07T13:05:35.706Z,925.40
2019-02-07T13:07:07.917Z,925.40
2019-02-07T13:08:39.608Z,925.31
2019-02-07T13:10:12.287Z,925.29
2019-02-07T13:11:44.794Z,925.32
2019-02-07T13:13:14.660Z,925.53
2019-02-07T13:14:46.737Z,925.52
2019-02-07T13:16:19.237Z,925.38
2019-02-07T13:17:52.222Z,925.29
2019-02-07T13:19:21.930Z,925.26
2019-02-07T13:20:53.841Z,925.25
2019-02-07T13:22:25.679Z,925.10
2019-02-07T13:23:59.401Z,925.17
2019-02-07T13:25:29.361Z,925.24
2019-02-07T13:28:32.859Z,925.41
2019-02-07T13:30:04.681Z,925.31
2019-02-07T13:31:36.506Z,925.16
2019-02-07T13:34:40.184Z,925.34
2019-02-07T13:36:12.105Z,925.31
2019-02-07T13:39:15.768Z,925.46
2019-02-07T13:40:47.985Z,925.38
2019-02-07T13:42:19.342Z,925.42
2019-02-07T13:43:51.412Z,925.42
2019-02-07T13:45:23.663Z,925.39
2019-02-07T13:46:55.355Z,925.48
2019-02-07T13:48:27.161Z,925.43
2019-02-07T13:49:59.075Z,925.32
2019-02-07T13:51:33.369Z,925.32
2019-02-07T13:53:02.732Z,925.23
2019-02-07T13:54:35.450Z,925.07
2019-02-07T13:56:06.632Z,925.12
2019-02-07T13:57:37.553Z,925.19
2019-02-07T13:59:09.614Z,925.11
2019-02-07T14:00:41.260Z,925.16
2019-02-07T14:02:13.108Z,925.24
2019-02-07T14:03:45.877Z,925.30
2019-02-07T14:05:19.007Z,925.39
2019-02-07T14:06:48.868Z,925.41
2019-02-07T14:08:20.466Z,925.39
2019-02-07T14:11:24.048Z,925.45
2019-02-07T14:12:55.849Z,925.37
2019-02-07T14:14:27.573Z,925.44
2019-02-07T14:15:59.401Z,925.38
2019-02-07T14:17:31.274Z,925.41
2019-02-07T14:19:03.345Z,925.42
2019-02-07T14:20:34.942Z,925.37
2019-02-07T14:22:06.811Z,925.41
2019-02-07T14:23:39.125Z,925.34
2019-02-07T14:25:11.005Z,925.31
2019-02-07T14:26:42.203Z,925.24
2019-02-07T14:28:14.130Z,925.12
2019-02-07T14:29:45.861Z,925.00
2019-02-07T14:31:17.990Z,924.98
2019-02-07T14:32:49.662Z,924.91
2019-02-07T14:34:21.398Z,925.06
2019-02-07T14:35:53.367Z,924.98
2019-02-07T14:37:25.298Z,924.96
2019-02-07T14:38:57.035Z,925.05
2019-02-07T14:40:28.683Z,925.03
2019-02-07T14:42:00.681Z,925.01
2019-02-07T14:45:04.138Z,925.11
2019-02-07T14:48:08.105Z,925.07
2019-02-07T14:49:39.621Z,925.07
2019-02-07T14:51:11.555Z,925.14
2019-02-07T14:52:43.277Z,924.77
2019-02-07T14:54:15.106Z,924.78
2019-02-07T14:55:46.935Z,924.92
2019-02-07T14:57:18.763Z,924.86
2019-02-07T15:00:22.466Z,925.00
2019-02-07T15:01:54.585Z,924.94
2019-02-07T15:04:57.941Z,924.75
2019-02-07T15:06:29.775Z,924.74
2019-02-07T15:08:01.607Z,924.76
2019-02-07T15:09:33.440Z,924.86
2019-02-07T15:11:05.310Z,924.89
2019-02-07T15:12:37.088Z,924.77
2019-02-07T15:14:09.019Z,924.71
2019-02-07T15:15:40.695Z,924.76
2019-02-07T15:18:46.168Z,924.73
2019-02-07T15:20:25.835Z,924.76
2019-02-07T15:21:48.008Z,924.84
2019-02-07T15:23:19.820Z,924.90
2019-02-07T15:26:23.843Z,924.94
2019-02-07T15:27:55.284Z,924.90
2019-02-07T15:29:27.442Z,924.81
2019-02-07T15:32:30.761Z,924.99
2019-02-07T15:34:02.664Z,924.86
2019-02-07T15:35:34.454Z,924.70
2019-02-07T15:37:06.241Z,924.59
2019-02-07T15:38:38.070Z,924.74
2019-02-07T15:40:10.229Z,924.86
2019-02-07T15:41:42.033Z,924.82
2019-02-07T15:43:13.567Z,924.66
2019-02-07T15:44:45.650Z,924.63
2019-02-07T15:46:17.225Z,924.73
2019-02-07T15:47:49.372Z,924.62
2019-02-07T15:49:20.890Z,924.32
2019-02-07T15:52:25.163Z,924.10
2019-02-07T15:53:56.385Z,924.09
2019-02-07T15:55:28.217Z,924.10
2019-02-07T15:58:32.241Z,924.09
2019-02-07T16:00:03.706Z,924.22
2019-02-07T16:01:39.255Z,924.27
2019-02-07T16:03:07.800Z,924.33
2019-02-07T16:04:39.670Z,924.27
2019-02-07T16:06:14.260Z,924.15
2019-02-07T16:07:43.018Z,924.11
2019-02-07T16:09:15.216Z,924.10
2019-02-07T16:10:48.150Z,924.19
2019-02-07T16:12:19.069Z,924.18
2019-02-07T16:13:51.291Z,924.06
2019-02-07T16:16:55.505Z,924.12
2019-02-07T16:18:25.636Z,924.19
2019-02-07T16:19:57.502Z,924.12
2019-02-07T16:21:30.875Z,924.31
2019-02-07T16:23:01.313Z,924.11
2019-02-07T16:24:34.036Z,923.97
2019-02-07T16:26:05.039Z,923.90
2019-02-07T16:27:37.276Z,923.94
2019-02-07T16:29:08.510Z,923.89
2019-02-07T16:30:44.222Z,923.83
2019-02-07T16:32:14.486Z,923.81
2019-02-07T16:33:44.195Z,923.92
2019-02-07T16:35:17.185Z,923.88
2019-02-07T16:36:47.626Z,923.91
2019-02-07T16:38:21.517Z,923.79
2019-02-07T16:39:53.737Z,923.60
2019-02-07T16:41:23.808Z,923.65
2019-02-07T16:42:54.992Z,923.65
2019-02-07T16:44:26.912Z,923.66
2019-02-07T16:45:58.936Z,923.80
2019-02-07T16:47:31.329Z,923.75
2019-02-07T16:49:02.853Z,923.80
2019-02-07T16:50:34.076Z,923.77
2019-02-07T16:52:05.887Z,923.98
2019-02-07T16:53:37.731Z,923.98
2019-02-07T16:55:09.545Z,923.97
2019-02-07T16:56:41.376Z,923.94
2019-02-07T16:58:13.304Z,923.93
2019-02-07T16:59:45.524Z,923.78
2019-02-07T17:02:49.038Z,923.85
2019-02-07T17:04:20.680Z,923.76
2019-02-07T17:05:52.685Z,923.79
2019-02-07T17:07:24.443Z,923.93
2019-02-07T17:08:56.055Z,923.88
2019-02-07T17:10:27.868Z,923.80
2019-02-07T17:12:01.210Z,923.42
2019-02-07T17:13:33.526Z,923.27
2019-02-07T17:15:05.799Z,923.20
2019-02-07T17:16:36.647Z,923.20
2019-02-07T17:18:08.423Z,923.18
2019-02-07T17:19:39.649Z,923.14
2019-02-07T17:21:12.827Z,923.20
2019-02-07T17:22:43.688Z,923.10
2019-02-07T17:24:15.257Z,923.19
2019-02-07T17:25:47.372Z,923.28
2019-02-07T17:27:19.025Z,923.35
2019-02-07T17:28:52.237Z,923.48
2019-02-07T17:30:23.851Z,923.35
2019-02-07T17:31:54.529Z,923.10
2019-02-07T17:33:25.893Z,923.01
2019-02-07T17:34:57.556Z,922.94
2019-02-07T17:36:29.393Z,923.08
2019-02-07T17:38:01.856Z,923.05
2019-02-07T17:39:33.680Z,923.21
2019-02-07T17:41:04.789Z,923.30
2019-02-07T17:42:36.418Z,923.21
2019-02-07T17:44:08.084Z,923.12
2019-02-07T17:47:11.761Z,923.17
2019-02-07T17:48:43.530Z,923.42
2019-02-07T17:50:15.672Z,923.14
2019-02-07T17:51:47.509Z,922.95
2019-02-07T17:53:19.834Z,922.85
2019-02-07T17:54:51.169Z,922.80
2019-02-07T17:56:22.813Z,922.79
2019-02-07T17:57:54.707Z,922.79
2019-02-07T17:59:26.507Z,922.89
2019-02-07T18:00:58.185Z,922.96
2019-02-07T18:02:29.960Z,923.20
2019-02-07T18:04:01.781Z,923.15
2019-02-07T18:05:33.604Z,922.93
2019-02-07T18:07:05.734Z,922.62
2019-02-07T18:08:37.305Z,922.58
2019-02-07T18:10:09.092Z,922.63
2019-02-07T18:11:40.906Z,922.69
2019-02-07T18:13:13.070Z,922.81
2019-02-07T18:14:44.620Z,922.82
2019-02-07T18:16:16.498Z,922.86
2019-02-07T18:17:48.508Z,922.72
2019-02-07T18:19:20.220Z,922.70
2019-02-07T18:20:51.850Z,922.76
2019-02-07T18:22:24.507Z,922.85
2019-02-07T18:23:55.503Z,922.86
2019-02-07T18:25:27.323Z,922.83
2019-02-07T18:26:59.148Z,923.05
2019-02-07T18:28:30.968Z,922.95
2019-02-07T18:30:02.929Z,922.90
2019-02-07T18:31:34.769Z,922.95
2019-02-07T18:33:06.440Z,922.80
2019-02-07T18:34:38.265Z,922.68
2019-02-07T18:36:10.088Z,922.71
2019-02-07T18:37:41.912Z,922.72
2019-02-07T18:39:13.737Z,922.62
2019-02-07T18:40:45.562Z,922.56
2019-02-07T18:42:17.596Z,922.52
2019-02-07T18:43:49.514Z,922.44
2019-02-07T18:45:21.034Z,922.61
2019-02-07T18:46:53.071Z,922.48
2019-02-07T18:48:25.038Z,922.52
2019-02-07T18:49:56.814Z,922.55
2019-02-07T18:51:28.359Z,922.54
2019-02-07T18:53:00.180Z,922.64
2019-02-07T18:54:32.005Z,922.88
2019-02-07T18:56:03.807Z,922.56
2019-02-07T18:57:35.674Z,922.73
2019-02-07T18:59:07.500Z,923.15
2019-02-07T19:00:39.334Z,922.61
2019-02-07T19:02:11.552Z,922.51
2019-02-07T19:03:43.093Z,922.52
2019-02-07T19:05:14.806Z,922.23
2019-02-07T19:06:46.780Z,923.04
2019-02-07T19:08:18.513Z,923.43
2019-02-07T19:09:50.274Z,922.55
2019-02-07T19:11:22.499Z,922.69
2019-02-07T19:12:53.988Z,922.74
2019-02-07T19:14:25.753Z,922.71
2019-02-07T19:15:57.972Z,922.99
2019-02-07T19:17:29.601Z,922.76
2019-02-07T19:19:01.217Z,922.81
2019-02-07T19:20:33.082Z,922.80
2019-02-07T19:22:04.846Z,923.07
2019-02-07T19:23:37.007Z,923.18
2019-02-07T19:25:08.706Z,923.19
2019-02-07T19:26:40.358Z,922.86
2019-02-07T19:28:12.126Z,922.53
2019-02-07T19:29:43.980Z,922.39
2019-02-07T19:31:16.137Z,922.43
2019-02-07T19:32:47.578Z,922.53
2019-02-07T19:34:19.439Z,922.55
2019-02-07T19:38:54.892Z,922.54
2019-02-07T19:40:26.785Z,922.52
2019-02-07T19:41:58.864Z,922.44
2019-02-07T19:43:30.348Z,922.38
2019-02-07T19:45:02.404Z,922.48
2019-02-07T19:46:34.011Z,922.47
2019-02-07T19:48:05.794Z,922.55
2019-02-07T19:49:37.615Z,922.52
2019-02-07T19:51:09.603Z,922.62
2019-02-07T19:52:41.259Z,922.48
2019-02-07T19:54:13.078Z,922.48
2019-02-07T19:55:44.959Z,922.47
2019-02-07T19:57:16.821Z,922.42